sensor_id;sensor_type;location;lat;lon;timestamp;pressure;altitude;pressure_sealevel;temperature;humidity
45253;BME280;63171;50.520;30.486;2023-02-20T00:00:43;99307.84;;;1.39;69.18
45253;BME280;63171;50.520;30.486;2023-02-20T00:01:34;99300.97;;;1.40;69.43
45253;BME280;63171;50.520;30.486;2023-02-20T00:02:25;99311.28;;;1.40;69.66
45253;BME280;63171;50.520;30.486;2023-02-20T00:03:15;99313.03;;;1.39;69.47
45253;BME280;63171;50.520;30.486;2023-02-20T00:04:06;99295.13;;;1.35;69.22
45253;BME280;63171;50.520;30.486;2023-02-20T00:04:55;99301.06;;;1.37;69.68
45253;BME280;63171;50.520;30.486;2023-02-20T00:05:46;99301.03;;;1.38;69.34
45253;BME280;63171;50.520;30.486;2023-02-20T00:06:36;99302.53;;;1.44;69.55
45253;BME280;63171;50.520;30.486;2023-02-20T00:07:26;99303.44;;;1.43;69.13
45253;BME280;63171;50.520;30.486;2023-02-20T00:08:16;99296.34;;;1.50;69.14
45253;BME280;63171;50.520;30.486;2023-02-20T00:09:07;99299.69;;;1.52;69.16
45253;BME280;63171;50.520;30.486;2023-02-20T00:09:57;99296.41;;;1.46;68.97
45253;BME280;63171;50.520;30.486;2023-02-20T00:10:48;99304.50;;;1.37;68.83
45253;BME280;63171;50.520;30.486;2023-02-20T00:11:37;99301.63;;;1.45;69.07
45253;BME280;63171;50.520;30.486;2023-02-20T00:12:28;99291.25;;;1.46;68.74
45253;BME280;63171;50.520;30.486;2023-02-20T00:13:18;99304.44;;;1.39;68.74
45253;BME280;63171;50.520;30.486;2023-02-20T00:14:09;99297.84;;;1.30;68.60
45253;BME280;63171;50.520;30.486;2023-02-20T00:14:58;99302.31;;;1.25;68.51
45253;BME280;63171;50.520;30.486;2023-02-20T00:15:48;99300.59;;;1.26;68.63
45253;BME280;63171;50.520;30.486;2023-02-20T00:16:40;99310.16;;;1.22;68.48
45253;BME280;63171;50.520;30.486;2023-02-20T00:17:30;99297.84;;;1.30;68.37
45253;BME280;63171;50.520;30.486;2023-02-20T00:18:21;99298.69;;;1.31;68.71
45253;BME280;63171;50.520;30.486;2023-02-20T00:19:11;99299.47;;;1.33;68.44
45253;BME280;63171;50.520;30.486;2023-02-20T00:20:02;99309.94;;;1.28;68.36
45253;BME280;63171;50.520;30.486;2023-02-20T00:20:52;99305.53;;;1.32;68.68
45253;BME280;63171;50.520;30.486;2023-02-20T00:21:45;99297.16;;;1.25;68.25
45253;BME280;63171;50.520;30.486;2023-02-20T00:22:35;99299.03;;;1.20;68.26
45253;BME280;63171;50.520;30.486;2023-02-20T00:23:26;99292.06;;;1.24;68.22
45253;BME280;63171;50.520;30.486;2023-02-20T00:24:17;99302.16;;;1.30;68.48
45253;BME280;63171;50.520;30.486;2023-02-20T00:25:08;99297.78;;;1.32;68.32
45253;BME280;63171;50.520;30.486;2023-02-20T00:25:57;99292.84;;;1.26;68.20
45253;BME280;63171;50.520;30.486;2023-02-20T00:26:51;99298.91;;;1.25;68.24
45253;BME280;63171;50.520;30.486;2023-02-20T00:27:41;99299.03;;;1.20;68.19
45253;BME280;63171;50.520;30.486;2023-02-20T00:28:32;99285.94;;;1.26;68.01
45253;BME280;63171;50.520;30.486;2023-02-20T00:29:23;99290.78;;;1.10;67.70
45253;BME280;63171;50.520;30.486;2023-02-20T00:30:16;99282.78;;;0.92;67.77
45253;BME280;63171;50.520;30.486;2023-02-20T00:31:15;99286.97;;;0.96;67.91
45253;BME280;63171;50.520;30.486;2023-02-20T00:32:09;99286.91;;;0.97;68.13
45253;BME280;63171;50.520;30.486;2023-02-20T00:32:59;99297.34;;;0.93;68.18
45253;BME280;63171;50.520;30.486;2023-02-20T00:33:50;99297.97;;;1.01;67.76
45253;BME280;63171;50.520;30.486;2023-02-20T00:34:40;99297.75;;;1.07;67.99
45253;BME280;63171;50.520;30.486;2023-02-20T00:35:31;99296.66;;;1.14;68.35
45253;BME280;63171;50.520;30.486;2023-02-20T00:36:20;99306.09;;;1.15;67.75
45253;BME280;63171;50.520;30.486;2023-02-20T00:37:11;99295.66;;;1.18;68.32
45253;BME280;63171;50.520;30.486;2023-02-20T00:38:01;99299.19;;;1.15;68.27
45253;BME280;63171;50.520;30.486;2023-02-20T00:38:51;99281.81;;;1.22;67.98
45253;BME280;63171;50.520;30.486;2023-02-20T00:39:42;99284.69;;;1.13;67.94
45253;BME280;63171;50.520;30.486;2023-02-20T00:40:33;99297.28;;;0.96;67.89
45253;BME280;63171;50.520;30.486;2023-02-20T00:41:24;99302.19;;;1.03;68.04
45253;BME280;63171;50.520;30.486;2023-02-20T00:42:15;99294.38;;;1.05;68.09
45253;BME280;63171;50.520;30.486;2023-02-20T00:43:05;99287.44;;;1.07;67.47
45253;BME280;63171;50.520;30.486;2023-02-20T00:43:57;99293.50;;;1.06;68.01
45253;BME280;63171;50.520;30.486;2023-02-20T00:44:49;99296.72;;;1.12;68.02
45253;BME280;63171;50.520;30.486;2023-02-20T00:45:40;99296.72;;;1.12;67.98
45253;BME280;63171;50.520;30.486;2023-02-20T00:46:30;99306.38;;;1.07;67.96
45253;BME280;63171;50.520;30.486;2023-02-20T00:47:22;99290.22;;;1.01;67.88
45253;BME280;63171;50.520;30.486;2023-02-20T00:48:12;99279.31;;;0.93;67.64
45253;BME280;63171;50.520;30.486;2023-02-20T00:49:22;99280.91;;;0.97;67.84
45253;BME280;63171;50.520;30.486;2023-02-20T00:50:13;99283.56;;;0.95;67.79
45253;BME280;63171;50.520;30.486;2023-02-20T00:51:04;99279.97;;;0.73;67.40
45253;BME280;63171;50.520;30.486;2023-02-20T00:51:54;99285.19;;;0.71;67.57
45253;BME280;63171;50.520;30.486;2023-02-20T00:52:45;99266.28;;;0.71;67.57
45253;BME280;63171;50.520;30.486;2023-02-20T00:53:34;99278.91;;;0.78;67.51
45253;BME280;63171;50.520;30.486;2023-02-20T00:54:25;99271.84;;;0.85;67.21
45253;BME280;63171;50.520;30.486;2023-02-20T00:55:15;99285.38;;;0.92;67.41
45253;BME280;63171;50.520;30.486;2023-02-20T00:56:08;99284.63;;;0.88;67.24
45253;BME280;63171;50.520;30.486;2023-02-20T00:56:58;99294.88;;;0.89;67.60
45253;BME280;63171;50.520;30.486;2023-02-20T00:57:48;99291.41;;;0.91;67.55
45253;BME280;63171;50.520;30.486;2023-02-20T00:58:38;99288.84;;;0.91;67.33
45253;BME280;63171;50.520;30.486;2023-02-20T00:59:29;99284.53;;;0.91;67.30
45253;BME280;63171;50.520;30.486;2023-02-20T01:01:54;99288.66;;;0.97;67.46
45253;BME280;63171;50.520;30.486;2023-02-20T01:02:47;99288.75;;;0.94;67.24
45253;BME280;63171;50.520;30.486;2023-02-20T01:03:37;99284.28;;;0.99;67.79
45253;BME280;63171;50.520;30.486;2023-02-20T01:04:27;99297.19;;;0.99;67.12
45253;BME280;63171;50.520;30.486;2023-02-20T01:05:18;99288.72;;;0.95;67.38
45253;BME280;63171;50.520;30.486;2023-02-20T01:06:08;99303.22;;;0.98;67.50
45253;BME280;63171;50.520;30.486;2023-02-20T01:06:58;99305.31;;;0.86;67.18
45253;BME280;63171;50.520;30.486;2023-02-20T01:07:49;99307.94;;;0.85;67.43
45253;BME280;63171;50.520;30.486;2023-02-20T01:08:38;99296.91;;;0.80;67.39
45253;BME280;63171;50.520;30.486;2023-02-20T01:09:29;99305.34;;;0.85;67.58
45253;BME280;63171;50.520;30.486;2023-02-20T01:10:18;99299.31;;;0.86;67.60
45253;BME280;63171;50.520;30.486;2023-02-20T01:11:09;99300.16;;;0.86;67.51
45253;BME280;63171;50.520;30.486;2023-02-20T01:11:59;99278.63;;;0.87;67.33
45253;BME280;63171;50.520;30.486;2023-02-20T01:12:50;99301.88;;;0.86;67.55
45253;BME280;63171;50.520;30.486;2023-02-20T01:13:40;99298.97;;;0.97;67.24
45253;BME280;63171;50.520;30.486;2023-02-20T01:14:31;99304.34;;;0.89;67.20
45253;BME280;63171;50.520;30.486;2023-02-20T01:15:24;99301.16;;;0.82;67.03
45253;BME280;63171;50.520;30.486;2023-02-20T01:16:14;99308.03;;;0.82;67.13
45253;BME280;63171;50.520;30.486;2023-02-20T01:17:05;99290.06;;;0.80;67.39
45253;BME280;63171;50.520;30.486;2023-02-20T01:17:57;99294.31;;;0.80;67.11
45253;BME280;63171;50.520;30.486;2023-02-20T01:18:49;99292.56;;;0.82;67.61
45253;BME280;63171;50.520;30.486;2023-02-20T01:19:40;99312.31;;;0.83;67.53
45253;BME280;63171;50.520;30.486;2023-02-20T01:20:31;99303.66;;;0.84;67.35
45253;BME280;63171;50.520;30.486;2023-02-20T01:21:21;99300.53;;;0.74;67.50
45253;BME280;63171;50.520;30.486;2023-02-20T01:22:11;99308.03;;;0.82;67.30
45253;BME280;63171;50.520;30.486;2023-02-20T01:23:02;99289.63;;;0.93;67.76
45253;BME280;63171;50.520;30.486;2023-02-20T01:23:52;99305.31;;;0.86;67.48
45253;BME280;63171;50.520;30.486;2023-02-20T01:24:42;99298.31;;;0.90;67.58
45253;BME280;63171;50.520;30.486;2023-02-20T01:25:32;99288.09;;;0.87;67.56
45253;BME280;63171;50.520;30.486;2023-02-20T01:26:22;99282.94;;;0.87;67.35
45253;BME280;63171;50.520;30.486;2023-02-20T01:27:14;99294.00;;;0.91;67.29
45253;BME280;63171;50.520;30.486;2023-02-20T01:28:05;99296.63;;;0.89;67.67
45253;BME280;63171;50.520;30.486;2023-02-20T01:28:55;99294.09;;;0.87;67.21
45253;BME280;63171;50.520;30.486;2023-02-20T01:29:45;99290.72;;;0.85;67.26
45253;BME280;63171;50.520;30.486;2023-02-20T01:30:37;99294.09;;;0.87;67.63
45253;BME280;63171;50.520;30.486;2023-02-20T01:31:28;99292.19;;;0.94;67.45
45253;BME280;63171;50.520;30.486;2023-02-20T01:32:17;99294.00;;;0.91;67.21
45253;BME280;63171;50.520;30.486;2023-02-20T01:33:10;99301.72;;;0.91;67.38
45253;BME280;63171;50.520;30.486;2023-02-20T01:33:59;99286.97;;;0.96;67.47
45253;BME280;63171;50.520;30.486;2023-02-20T01:34:50;99297.78;;;0.80;67.57
45253;BME280;63171;50.520;30.486;2023-02-20T01:35:40;99298.63;;;0.79;67.69
45253;BME280;63171;50.520;30.486;2023-02-20T01:36:31;99295.78;;;0.88;67.77
45253;BME280;63171;50.520;30.486;2023-02-20T01:37:21;99293.22;;;0.88;67.65
45253;BME280;63171;50.520;30.486;2023-02-20T01:38:11;99288.38;;;0.78;67.09
45253;BME280;63171;50.520;30.486;2023-02-20T01:39:01;99302.31;;;0.72;67.07
45253;BME280;63171;50.520;30.486;2023-02-20T01:39:51;99299.84;;;0.69;67.42
45253;BME280;63171;50.520;30.486;2023-02-20T01:40:46;99314.41;;;0.70;67.56
45253;BME280;63171;50.520;30.486;2023-02-20T01:41:37;99304.78;;;0.75;67.56
45253;BME280;63171;50.520;30.486;2023-02-20T01:42:29;99307.31;;;0.77;67.57
45253;BME280;63171;50.520;30.486;2023-02-20T01:43:20;99305.97;;;0.65;67.54
45253;BME280;63171;50.520;30.486;2023-02-20T01:44:16;99296.44;;;0.69;67.32
45253;BME280;63171;50.520;30.486;2023-02-20T01:45:14;99284.28;;;0.72;67.24
45253;BME280;63171;50.520;30.486;2023-02-20T01:46:43;99294.53;;;0.74;67.65
45253;BME280;63171;50.520;30.486;2023-02-20T01:47:33;99308.69;;;0.61;67.08
45253;BME280;63171;50.520;30.486;2023-02-20T01:48:25;99300.97;;;0.61;67.34
45253;BME280;63171;50.520;30.486;2023-02-20T01:49:19;99296.66;;;0.61;67.48
45253;BME280;63171;50.520;30.486;2023-02-20T01:50:12;99294.41;;;0.50;67.37
45253;BME280;63171;50.520;30.486;2023-02-20T01:51:02;99303.59;;;0.59;67.09
45253;BME280;63171;50.520;30.486;2023-02-20T01:52:00;99293.00;;;0.68;67.61
45253;BME280;63171;50.520;30.486;2023-02-20T01:52:53;99312.22;;;0.58;67.41
45253;BME280;63171;50.520;30.486;2023-02-20T01:53:45;99310.31;;;0.63;67.23
45253;BME280;63171;50.520;30.486;2023-02-20T01:54:37;99306.97;;;0.61;67.43
45253;BME280;63171;50.520;30.486;2023-02-20T01:55:34;99303.38;;;0.65;67.55
45253;BME280;63171;50.520;30.486;2023-02-20T01:56:26;99304.22;;;0.67;67.56
45253;BME280;63171;50.520;30.486;2023-02-20T01:57:19;99304.22;;;0.67;67.43
45253;BME280;63171;50.520;30.486;2023-02-20T01:58:14;99304.09;;;0.70;67.54
45253;BME280;63171;50.520;30.486;2023-02-20T01:59:07;99312.63;;;0.72;67.28
45253;BME280;63171;50.520;30.486;2023-02-20T02:00:04;99316.19;;;0.68;67.45
45253;BME280;63171;50.520;30.486;2023-02-20T02:01:04;99308.69;;;0.61;67.24
45253;BME280;63171;50.520;30.486;2023-02-20T02:01:56;99317.41;;;0.56;67.36
45253;BME280;63171;50.520;30.486;2023-02-20T02:02:47;99320.00;;;0.56;67.50
45253;BME280;63171;50.520;30.486;2023-02-20T02:03:43;99323.53;;;0.52;67.47
45253;BME280;63171;50.520;30.486;2023-02-20T02:04:35;99305.16;;;0.63;67.20
45253;BME280;63171;50.520;30.486;2023-02-20T02:05:28;99311.28;;;0.61;67.38
45253;BME280;63171;50.520;30.486;2023-02-20T02:06:20;99301.66;;;0.66;67.65
45253;BME280;63171;50.520;30.486;2023-02-20T02:07:10;99319.56;;;0.70;67.41
45253;BME280;63171;50.520;30.486;2023-02-20T02:08:03;99294.63;;;0.71;67.71
45253;BME280;63171;50.520;30.486;2023-02-20T02:08:55;99317.38;;;0.58;67.58
45253;BME280;63171;50.520;30.486;2023-02-20T02:09:53;99312.34;;;0.53;67.62
45253;BME280;63171;50.520;30.486;2023-02-20T02:10:50;99322.63;;;0.55;67.53
45253;BME280;63171;50.520;30.486;2023-02-20T02:11:43;99318.38;;;0.52;67.38
45253;BME280;63171;50.520;30.486;2023-02-20T02:12:33;99309.91;;;0.49;67.36
45253;BME280;63171;50.520;30.486;2023-02-20T02:13:24;99314.97;;;0.52;67.65
45253;BME280;63171;50.520;30.486;2023-02-20T02:14:17;99313.22;;;0.54;67.25
45253;BME280;63171;50.520;30.486;2023-02-20T02:15:13;99313.16;;;0.55;67.37
45253;BME280;63171;50.520;30.486;2023-02-20T02:16:13;99317.94;;;0.68;67.46
45253;BME280;63171;50.520;30.486;2023-02-20T02:17:42;99314.75;;;0.59;67.70
45253;BME280;63171;50.520;30.486;2023-02-20T02:18:51;99317.41;;;0.56;67.69
45253;BME280;63171;50.520;30.486;2023-02-20T02:23:36;99317.41;;;0.56;67.49
45253;BME280;63171;50.520;30.486;2023-02-20T02:25:55;99314.00;;;0.56;67.61
45253;BME280;63171;50.520;30.486;2023-02-20T02:29:01;99318.84;;;0.37;67.54
45253;BME280;63171;50.520;30.486;2023-02-20T02:31:53;99312.84;;;0.37;67.75
45253;BME280;63171;50.520;30.486;2023-02-20T02:34:50;99330.88;;;0.37;67.49
45253;BME280;63171;50.520;30.486;2023-02-20T02:36:12;99315.50;;;0.34;67.79
45253;BME280;63171;50.520;30.486;2023-02-20T02:37:11;99326.75;;;0.31;67.71
45253;BME280;63171;50.520;30.486;2023-02-20T02:38:15;99335.22;;;0.35;67.74
45253;BME280;63171;50.520;30.486;2023-02-20T02:39:12;99330.91;;;0.35;67.89
45253;BME280;63171;50.520;30.486;2023-02-20T02:40:11;99310.56;;;0.27;67.71
45253;BME280;63171;50.520;30.486;2023-02-20T02:41:10;99329.63;;;0.20;67.83
45253;BME280;63171;50.520;30.486;2023-02-20T02:42:11;99326.13;;;0.23;67.50
45253;BME280;63171;50.520;30.486;2023-02-20T02:43:08;99329.53;;;0.23;67.46
45253;BME280;63171;50.520;30.486;2023-02-20T02:44:09;99333.06;;;0.21;67.96
45253;BME280;63171;50.520;30.486;2023-02-20T02:45:05;99327.59;;;0.32;67.74
45253;BME280;63171;50.520;30.486;2023-02-20T02:46:05;99337.72;;;0.38;67.72
45253;BME280;63171;50.520;30.486;2023-02-20T02:46:59;99326.50;;;0.39;67.94
45253;BME280;63171;50.520;30.486;2023-02-20T02:47:55;99327.34;;;0.39;67.83
45253;BME280;63171;50.520;30.486;2023-02-20T02:48:53;99331.84;;;0.33;68.00
45253;BME280;63171;50.520;30.486;2023-02-20T02:49:50;99305.47;;;0.24;67.72
45253;BME280;63171;50.520;30.486;2023-02-20T02:50:45;99325.28;;;0.22;67.74
45253;BME280;63171;50.520;30.486;2023-02-20T02:51:41;99327.84;;;0.22;68.04
45253;BME280;63171;50.520;30.486;2023-02-20T02:52:35;99323.50;;;0.24;67.81
45253;BME280;63171;50.520;30.486;2023-02-20T02:53:34;99332.25;;;0.19;67.54
45253;BME280;63171;50.520;30.486;2023-02-20T02:54:27;99326.88;;;0.26;67.93
45253;BME280;63171;50.520;30.486;2023-02-20T02:55:19;99324.50;;;0.20;67.68
45253;BME280;63171;50.520;30.486;2023-02-20T02:56:10;99333.84;;;0.23;68.26
45253;BME280;63171;50.520;30.486;2023-02-20T02:57:19;99332.97;;;0.24;67.72
45253;BME280;63171;50.520;30.486;2023-02-20T02:58:12;99334.38;;;0.34;67.70
45253;BME280;63171;50.520;30.486;2023-02-20T02:59:06;99333.75;;;0.26;68.03
45253;BME280;63171;50.520;30.486;2023-02-20T02:59:59;99330.53;;;0.19;67.95
45253;BME280;63171;50.520;30.486;2023-02-20T03:00:55;99331.16;;;0.27;67.96
45253;BME280;63171;50.520;30.486;2023-02-20T03:01:50;99326.81;;;0.29;68.14
45253;BME280;63171;50.520;30.486;2023-02-20T03:02:49;99335.53;;;0.24;67.83
45253;BME280;63171;50.520;30.486;2023-02-20T03:03:43;99326.16;;;0.21;68.25
45253;BME280;63171;50.520;30.486;2023-02-20T03:04:36;99331.38;;;0.20;67.78
45253;BME280;63171;50.520;30.486;2023-02-20T03:05:33;99329.25;;;0.34;68.38
45253;BME280;63171;50.520;30.486;2023-02-20T03:06:31;99321.41;;;0.37;68.07
45253;BME280;63171;50.520;30.486;2023-02-20T03:07:27;99311.41;;;0.26;68.39
45253;BME280;63171;50.520;30.486;2023-02-20T03:08:24;99324.00;;;0.37;68.14
45253;BME280;63171;50.520;30.486;2023-02-20T03:09:22;99320.94;;;0.24;68.18
45253;BME280;63171;50.520;30.486;2023-02-20T03:10:17;99326.91;;;0.25;68.52
45253;BME280;63171;50.520;30.486;2023-02-20T03:11:14;99327.66;;;0.30;68.35
45253;BME280;63171;50.520;30.486;2023-02-20T03:12:08;99315.50;;;0.34;68.23
45253;BME280;63171;50.520;30.486;2023-02-20T03:13:03;99322.34;;;0.35;68.26
45253;BME280;63171;50.520;30.486;2023-02-20T03:13:56;99338.06;;;0.27;68.34
45253;BME280;63171;50.520;30.486;2023-02-20T03:15:11;99320.75;;;0.31;68.19
45253;BME280;63171;50.520;30.486;2023-02-20T03:16:26;99320.28;;;0.18;68.23
45253;BME280;63171;50.520;30.486;2023-02-20T03:17:24;99334.84;;;0.19;68.34
45253;BME280;63171;50.520;30.486;2023-02-20T03:18:23;99321.78;;;0.25;67.84
45253;BME280;63171;50.520;30.486;2023-02-20T03:19:22;99320.28;;;0.18;68.27
45253;BME280;63171;50.520;30.486;2023-02-20T03:20:16;99314.41;;;0.13;68.23
45253;BME280;63171;50.520;30.486;2023-02-20T03:21:11;99318.69;;;0.12;68.21
45253;BME280;63171;50.520;30.486;2023-02-20T03:22:06;99317.91;;;0.10;68.21
45253;BME280;63171;50.520;30.486;2023-02-20T03:23:04;99315.47;;;0.06;67.92
45253;BME280;63171;50.520;30.486;2023-02-20T03:23:59;99324.00;;;0.08;67.91
45253;BME280;63171;50.520;30.486;2023-02-20T03:24:54;99329.00;;;0.12;68.27
45253;BME280;63171;50.520;30.486;2023-02-20T03:25:58;99320.28;;;0.18;68.38
45253;BME280;63171;50.520;30.486;2023-02-20T03:26:51;99337.38;;;0.20;67.92
45253;BME280;63171;50.520;30.486;2023-02-20T03:27:46;99329.72;;;0.17;67.91
45253;BME280;63171;50.520;30.486;2023-02-20T03:28:40;99322.91;;;0.16;68.08
45253;BME280;63171;50.520;30.486;2023-02-20T03:29:35;99329.63;;;0.20;68.20
45253;BME280;63171;50.520;30.486;2023-02-20T03:30:29;99327.06;;;0.20;68.33
45253;BME280;63171;50.520;30.486;2023-02-20T03:31:27;99332.16;;;0.22;67.82
45253;BME280;63171;50.520;30.486;2023-02-20T03:32:24;99325.47;;;0.16;67.88
45253;BME280;63171;50.520;30.486;2023-02-20T03:33:37;99325.72;;;0.07;67.89
45253;BME280;63171;50.520;30.486;2023-02-20T03:34:48;99323.50;;;-0.05;68.14
45253;BME280;63171;50.520;30.486;2023-02-20T03:35:59;99308.16;;;-0.08;67.90
45253;BME280;63171;50.520;30.486;2023-02-20T03:37:12;99329.44;;;-0.03;68.15
45253;BME280;63171;50.520;30.486;2023-02-20T03:38:24;99328.31;;;0.07;67.89
45253;BME280;63171;50.520;30.486;2023-02-20T03:39:37;99330.41;;;-0.07;68.07
45253;BME280;63171;50.520;30.486;2023-02-20T03:40:47;99333.09;;;-0.10;67.85
45253;BME280;63171;50.520;30.486;2023-02-20T03:41:58;99320.97;;;-0.07;67.86
45253;BME280;63171;50.520;30.486;2023-02-20T03:43:15;99328.63;;;-0.05;67.99
45253;BME280;63171;50.520;30.486;2023-02-20T03:44:14;99320.16;;;-0.09;68.11
45253;BME280;63171;50.520;30.486;2023-02-20T03:45:05;99333.00;;;-0.07;68.05
45253;BME280;63171;50.520;30.486;2023-02-20T03:46:00;99331.06;;;-0.01;68.07
45253;BME280;63171;50.520;30.486;2023-02-20T03:46:53;99324.19;;;0.02;67.92
45253;BME280;63171;50.520;30.486;2023-02-20T03:47:49;99331.75;;;0.06;68.48
45253;BME280;63171;50.520;30.486;2023-02-20T03:48:49;99331.94;;;0.00;68.12
45253;BME280;63171;50.520;30.486;2023-02-20T03:49:42;99334.69;;;-0.06;68.18
45253;BME280;63171;50.520;30.486;2023-02-20T03:50:36;99337.34;;;-0.09;68.13
45253;BME280;63171;50.520;30.486;2023-02-20T03:51:27;99329.72;;;-0.12;68.10
45253;BME280;63171;50.520;30.486;2023-02-20T03:52:26;99332.31;;;-0.14;68.25
45253;BME280;63171;50.520;30.486;2023-02-20T03:53:16;99340.72;;;-0.07;68.05
45253;BME280;63171;50.520;30.486;2023-02-20T03:54:07;99331.31;;;-0.08;67.96
45253;BME280;63171;50.520;30.486;2023-02-20T03:54:59;99342.34;;;-0.05;68.04
45253;BME280;63171;50.520;30.486;2023-02-20T03:55:50;99332.78;;;0.01;68.27
45253;BME280;63171;50.520;30.486;2023-02-20T03:56:44;99337.06;;;0.02;68.29
45253;BME280;63171;50.520;30.486;2023-02-20T03:57:44;99344.81;;;0.00;68.31
45253;BME280;63171;50.520;30.486;2023-02-20T03:58:40;99324.22;;;0.00;67.93
45253;BME280;63171;50.520;30.486;2023-02-20T03:59:36;99334.69;;;-0.06;67.75
45253;BME280;63171;50.520;30.486;2023-02-20T04:00:30;99328.13;;;-0.18;67.85
45253;BME280;63171;50.520;30.486;2023-02-20T04:01:24;99331.50;;;-0.16;68.15
45253;BME280;63171;50.520;30.486;2023-02-20T04:02:20;99330.66;;;-0.16;68.13
45253;BME280;63171;50.520;30.486;2023-02-20T04:03:16;99332.81;;;-0.01;68.28
45253;BME280;63171;50.520;30.486;2023-02-20T04:04:15;99330.91;;;0.06;67.89
45253;BME280;63171;50.520;30.486;2023-02-20T04:05:09;99326.81;;;-0.02;68.00
45253;BME280;63171;50.520;30.486;2023-02-20T04:06:04;99324.25;;;-0.02;67.93
45253;BME280;63171;50.520;30.486;2023-02-20T04:06:59;99332.19;;;-0.09;68.02
45253;BME280;63171;50.520;30.486;2023-02-20T04:07:55;99334.00;;;-0.13;67.76
45253;BME280;63171;50.520;30.486;2023-02-20T04:08:53;99321.16;;;-0.14;67.83
45253;BME280;63171;50.520;30.486;2023-02-20T04:09:47;99327.00;;;-0.08;67.82
45253;BME280;63171;50.520;30.486;2023-02-20T04:10:42;99319.31;;;-0.09;67.71
45253;BME280;63171;50.520;30.486;2023-02-20T04:11:37;99318.44;;;-0.08;68.21
45253;BME280;63171;50.520;30.486;2023-02-20T04:12:31;99320.03;;;-0.04;67.86
45253;BME280;63171;50.520;30.486;2023-02-20T04:13:25;99332.19;;;-0.09;68.10
45253;BME280;63171;50.520;30.486;2023-02-20T04:14:20;99316.66;;;-0.06;68.14
45253;BME280;63171;50.520;30.486;2023-02-20T04:15:15;99320.13;;;-0.07;68.15
45253;BME280;63171;50.520;30.486;2023-02-20T04:16:06;99317.47;;;-0.04;68.16
45253;BME280;63171;50.520;30.486;2023-02-20T04:17:00;99312.44;;;-0.09;67.89
45253;BME280;63171;50.520;30.486;2023-02-20T04:17:55;99306.59;;;-0.15;68.11
45253;BME280;63171;50.520;30.486;2023-02-20T04:18:46;99317.75;;;-0.15;67.60
45253;BME280;63171;50.520;30.486;2023-02-20T04:19:38;99320.97;;;-0.07;67.94
45253;BME280;63171;50.520;30.486;2023-02-20T04:20:29;99318.63;;;-0.16;67.56
45253;BME280;63171;50.520;30.486;2023-02-20T04:21:33;99323.69;;;-0.11;67.97
45253;BME280;63171;50.520;30.486;2023-02-20T04:22:27;99322.78;;;-0.10;67.59
45253;BME280;63171;50.520;30.486;2023-02-20T04:23:21;99300.84;;;-0.23;67.60
45253;BME280;63171;50.520;30.486;2023-02-20T04:24:16;99295.66;;;-0.22;67.83
45253;BME280;63171;50.520;30.486;2023-02-20T04:25:17;99305.84;;;-0.19;67.64
45253;BME280;63171;50.520;30.486;2023-02-20T04:26:15;99304.19;;;-0.20;67.70
45253;BME280;63171;50.520;30.486;2023-02-20T04:27:08;99295.66;;;-0.22;67.68
45253;BME280;63171;50.520;30.486;2023-02-20T04:28:05;99313.81;;;-0.26;67.41
45253;BME280;63171;50.520;30.486;2023-02-20T04:29:05;99298.38;;;-0.26;67.71
45253;BME280;63171;50.520;30.486;2023-02-20T04:29:56;99306.84;;;-0.23;67.48
45253;BME280;63171;50.520;30.486;2023-02-20T04:30:46;99301.78;;;-0.26;67.60
45253;BME280;63171;50.520;30.486;2023-02-20T04:31:37;99303.75;;;-0.36;67.67
45253;BME280;63171;50.520;30.486;2023-02-20T04:32:28;99288.41;;;-0.39;67.65
45253;BME280;63171;50.520;30.486;2023-02-20T04:33:19;99287.59;;;-0.41;67.65
45253;BME280;63171;50.520;30.486;2023-02-20T04:34:10;99284.03;;;-0.35;67.81
45253;BME280;63171;50.520;30.486;2023-02-20T04:35:01;99314.56;;;-0.23;67.50
45253;BME280;63171;50.520;30.486;2023-02-20T04:35:51;99304.34;;;-0.26;67.54
45253;BME280;63171;50.520;30.486;2023-02-20T04:36:43;99306.78;;;-0.21;67.98
45253;BME280;63171;50.520;30.486;2023-02-20T04:37:34;99294.81;;;-0.22;67.31
45253;BME280;63171;50.520;30.486;2023-02-20T04:38:24;99305.06;;;-0.21;67.49
45253;BME280;63171;50.520;30.486;2023-02-20T04:39:14;99304.31;;;-0.24;67.74
45253;BME280;63171;50.520;30.486;2023-02-20T04:40:05;99293.25;;;-0.28;67.67
45253;BME280;63171;50.520;30.486;2023-02-20T04:40:57;99303.72;;;-0.34;67.79
45253;BME280;63171;50.520;30.486;2023-02-20T04:41:48;99303.66;;;-0.33;67.30
45253;BME280;63171;50.520;30.486;2023-02-20T04:42:57;99298.66;;;-0.37;67.33
45253;BME280;63171;50.520;30.486;2023-02-20T04:43:48;99285.75;;;-0.36;67.73
45253;BME280;63171;50.520;30.486;2023-02-20T04:44:38;99304.00;;;-0.45;67.48
45253;BME280;63171;50.520;30.486;2023-02-20T04:45:31;99298.66;;;-0.37;67.50
45253;BME280;63171;50.520;30.486;2023-02-20T04:46:22;99295.94;;;-0.33;67.57
45253;BME280;63171;50.520;30.486;2023-02-20T04:47:14;99298.38;;;-0.28;67.48
45253;BME280;63171;50.520;30.486;2023-02-20T04:48:06;99309.59;;;-0.31;67.34
45253;BME280;63171;50.520;30.486;2023-02-20T04:48:56;99301.09;;;-0.33;67.34
45253;BME280;63171;50.520;30.486;2023-02-20T04:49:46;99296.88;;;-0.35;67.72
45253;BME280;63171;50.520;30.486;2023-02-20T04:50:40;99279.63;;;-0.32;67.67
45253;BME280;63171;50.520;30.486;2023-02-20T04:51:32;99293.50;;;-0.37;67.21
45253;BME280;63171;50.520;30.486;2023-02-20T04:52:21;99301.88;;;-0.31;67.40
45253;BME280;63171;50.520;30.486;2023-02-20T04:53:15;99293.28;;;-0.30;67.50
45253;BME280;63171;50.520;30.486;2023-02-20T04:54:05;99297.63;;;-0.32;67.59
45253;BME280;63171;50.520;30.486;2023-02-20T04:54:55;99300.25;;;-0.33;67.53
45253;BME280;63171;50.520;30.486;2023-02-20T04:55:45;99293.88;;;-0.51;67.25
45253;BME280;63171;50.520;30.486;2023-02-20T04:56:42;99301.41;;;-0.45;67.27
45253;BME280;63171;50.520;30.486;2023-02-20T04:57:33;99300.34;;;-0.36;67.60
45253;BME280;63171;50.520;30.486;2023-02-20T04:58:23;99302.03;;;-0.35;67.43
45253;BME280;63171;50.520;30.486;2023-02-20T04:59:39;99289.44;;;-0.46;67.32